sensor_id;sensor_type;location;lat;lon;timestamp;P1;durP1;ratioP1;P2;durP2;ratioP2
68942;SDS011;60852;52.190;4.422;2023-04-15T00:00:31;9.26;;;9.26;;
68942;SDS011;60852;52.190;4.422;2023-04-15T00:02:58;9.87;;;9.87;;
68942;SDS011;60852;52.190;4.422;2023-04-15T00:05:23;9.97;;;9.97;;
68942;SDS011;60852;52.190;4.422;2023-04-15T00:07:48;9.98;;;9.98;;
68942;SDS011;60852;52.190;4.422;2023-04-15T00:10:14;10.16;;;10.16;;
68942;SDS011;60852;52.190;4.422;2023-04-15T00:12:39;10.03;;;10.03;;
68942;SDS011;60852;52.190;4.422;2023-04-15T00:15:06;10.20;;;10.20;;
68942;SDS011;60852;52.190;4.422;2023-04-15T00:17:33;10.33;;;10.33;;
68942;SDS011;60852;52.190;4.422;2023-04-15T00:19:59;10.56;;;10.56;;
68942;SDS011;60852;52.190;4.422;2023-04-15T00:22:25;10.64;;;10.64;;
68942;SDS011;60852;52.190;4.422;2023-04-15T00:24:51;11.51;;;11.51;;
68942;SDS011;60852;52.190;4.422;2023-04-15T00:27:17;11.12;;;11.12;;
68942;SDS011;60852;52.190;4.422;2023-04-15T00:29:43;11.65;;;11.65;;
68942;SDS011;60852;52.190;4.422;2023-04-15T00:32:09;11.67;;;11.67;;
68942;SDS011;60852;52.190;4.422;2023-04-15T00:34:34;11.67;;;11.67;;
68942;SDS011;60852;52.190;4.422;2023-04-15T00:37:01;11.74;;;11.74;;
68942;SDS011;60852;52.190;4.422;2023-04-15T00:39:26;11.44;;;11.44;;
68942;SDS011;60852;52.190;4.422;2023-04-15T00:41:52;11.24;;;11.24;;
68942;SDS011;60852;52.190;4.422;2023-04-15T00:44:18;11.81;;;11.81;;
68942;SDS011;60852;52.190;4.422;2023-04-15T00:46:44;11.97;;;11.97;;
68942;SDS011;60852;52.190;4.422;2023-04-15T00:49:10;11.39;;;11.39;;
68942;SDS011;60852;52.190;4.422;2023-04-15T00:51:37;11.35;;;11.35;;
68942;SDS011;60852;52.190;4.422;2023-04-15T00:54:03;11.04;;;11.04;;
68942;SDS011;60852;52.190;4.422;2023-04-15T00:56:29;11.18;;;11.18;;
68942;SDS011;60852;52.190;4.422;2023-04-15T00:58:55;11.23;;;11.23;;
68942;SDS011;60852;52.190;4.422;2023-04-15T01:01:23;11.25;;;11.25;;
68942;SDS011;60852;52.190;4.422;2023-04-15T01:03:50;11.01;;;11.01;;
68942;SDS011;60852;52.190;4.422;2023-04-15T01:06:16;11.16;;;11.16;;
68942;SDS011;60852;52.190;4.422;2023-04-15T01:08:43;10.80;;;10.80;;
68942;SDS011;60852;52.190;4.422;2023-04-15T01:11:12;11.07;;;11.07;;
68942;SDS011;60852;52.190;4.422;2023-04-15T01:13:39;11.13;;;11.13;;
68942;SDS011;60852;52.190;4.422;2023-04-15T01:16:05;11.39;;;11.39;;
68942;SDS011;60852;52.190;4.422;2023-04-15T01:18:31;11.45;;;11.45;;
68942;SDS011;60852;52.190;4.422;2023-04-15T01:20:57;11.63;;;11.63;;
68942;SDS011;60852;52.190;4.422;2023-04-15T01:23:25;11.53;;;11.53;;
68942;SDS011;60852;52.190;4.422;2023-04-15T01:25:52;11.63;;;11.63;;
68942;SDS011;60852;52.190;4.422;2023-04-15T01:28:18;11.19;;;11.19;;
68942;SDS011;60852;52.190;4.422;2023-04-15T01:30:44;11.41;;;11.41;;
68942;SDS011;60852;52.190;4.422;2023-04-15T01:33:10;11.60;;;11.60;;
68942;SDS011;60852;52.190;4.422;2023-04-15T01:35:35;11.71;;;11.71;;
68942;SDS011;60852;52.190;4.422;2023-04-15T01:38:03;11.97;;;11.97;;
68942;SDS011;60852;52.190;4.422;2023-04-15T01:40:30;12.22;;;12.22;;
68942;SDS011;60852;52.190;4.422;2023-04-15T01:42:56;12.10;;;12.10;;
68942;SDS011;60852;52.190;4.422;2023-04-15T01:45:21;11.73;;;11.73;;
68942;SDS011;60852;52.190;4.422;2023-04-15T01:47:47;12.12;;;12.12;;
68942;SDS011;60852;52.190;4.422;2023-04-15T01:50:13;12.26;;;12.26;;
68942;SDS011;60852;52.190;4.422;2023-04-15T01:52:39;12.20;;;12.20;;
68942;SDS011;60852;52.190;4.422;2023-04-15T01:55:05;12.13;;;12.13;;
68942;SDS011;60852;52.190;4.422;2023-04-15T01:57:32;12.33;;;12.33;;
68942;SDS011;60852;52.190;4.422;2023-04-15T01:59:58;12.35;;;12.35;;
68942;SDS011;60852;52.190;4.422;2023-04-15T02:02:24;12.13;;;12.13;;
68942;SDS011;60852;52.190;4.422;2023-04-15T02:04:49;12.08;;;12.08;;
68942;SDS011;60852;52.190;4.422;2023-04-15T02:07:15;12.55;;;12.55;;
68942;SDS011;60852;52.190;4.422;2023-04-15T02:09:40;12.01;;;12.01;;
68942;SDS011;60852;52.190;4.422;2023-04-15T02:12:08;12.25;;;12.25;;
68942;SDS011;60852;52.190;4.422;2023-04-15T02:14:33;11.95;;;11.95;;
68942;SDS011;60852;52.190;4.422;2023-04-15T02:16:59;12.32;;;12.32;;
68942;SDS011;60852;52.190;4.422;2023-04-15T02:19:31;12.79;;;12.79;;
68942;SDS011;60852;52.190;4.422;2023-04-15T02:21:59;12.49;;;12.49;;
68942;SDS011;60852;52.190;4.422;2023-04-15T02:24:26;12.29;;;12.29;;
68942;SDS011;60852;52.190;4.422;2023-04-15T02:26:53;12.37;;;12.37;;
68942;SDS011;60852;52.190;4.422;2023-04-15T02:29:18;12.10;;;12.10;;
68942;SDS011;60852;52.190;4.422;2023-04-15T02:31:43;12.46;;;12.46;;
68942;SDS011;60852;52.190;4.422;2023-04-15T02:34:09;11.64;;;11.64;;
68942;SDS011;60852;52.190;4.422;2023-04-15T02:36:35;12.70;;;12.70;;
68942;SDS011;60852;52.190;4.422;2023-04-15T02:39:01;12.10;;;12.10;;
68942;SDS011;60852;52.190;4.422;2023-04-15T02:41:27;12.66;;;12.66;;
68942;SDS011;60852;52.190;4.422;2023-04-15T02:43:54;12.31;;;12.31;;
68942;SDS011;60852;52.190;4.422;2023-04-15T02:46:20;12.36;;;12.36;;
68942;SDS011;60852;52.190;4.422;2023-04-15T02:48:47;11.97;;;11.97;;
68942;SDS011;60852;52.190;4.422;2023-04-15T02:51:16;12.05;;;12.05;;
68942;SDS011;60852;52.190;4.422;2023-04-15T02:53:46;12.59;;;12.59;;
68942;SDS011;60852;52.190;4.422;2023-04-15T02:56:13;11.91;;;11.91;;
68942;SDS011;60852;52.190;4.422;2023-04-15T02:58:40;11.97;;;11.97;;
68942;SDS011;60852;52.190;4.422;2023-04-15T03:01:06;11.87;;;11.87;;
68942;SDS011;60852;52.190;4.422;2023-04-15T03:03:32;11.91;;;11.91;;
68942;SDS011;60852;52.190;4.422;2023-04-15T03:05:58;11.93;;;11.93;;
68942;SDS011;60852;52.190;4.422;2023-04-15T03:08:24;12.44;;;12.44;;
68942;SDS011;60852;52.190;4.422;2023-04-15T03:10:49;11.53;;;11.53;;
68942;SDS011;60852;52.190;4.422;2023-04-15T03:13:16;11.95;;;11.95;;
68942;SDS011;60852;52.190;4.422;2023-04-15T03:15:42;11.51;;;11.51;;
68942;SDS011;60852;52.190;4.422;2023-04-15T03:18:08;11.75;;;11.75;;
68942;SDS011;60852;52.190;4.422;2023-04-15T03:20:33;11.06;;;11.06;;
68942;SDS011;60852;52.190;4.422;2023-04-15T03:23:00;11.26;;;11.26;;
68942;SDS011;60852;52.190;4.422;2023-04-15T03:25:25;11.74;;;11.74;;
68942;SDS011;60852;52.190;4.422;2023-04-15T03:27:51;11.68;;;11.68;;
68942;SDS011;60852;52.190;4.422;2023-04-15T03:30:17;11.44;;;11.44;;
68942;SDS011;60852;52.190;4.422;2023-04-15T03:32:42;11.31;;;11.31;;
68942;SDS011;60852;52.190;4.422;2023-04-15T03:35:07;11.46;;;11.46;;
68942;SDS011;60852;52.190;4.422;2023-04-15T03:37:33;11.19;;;11.19;;
68942;SDS011;60852;52.190;4.422;2023-04-15T03:39:59;11.26;;;11.26;;
68942;SDS011;60852;52.190;4.422;2023-04-15T03:42:24;10.98;;;10.98;;
68942;SDS011;60852;52.190;4.422;2023-04-15T03:44:50;11.06;;;11.06;;
68942;SDS011;60852;52.190;4.422;2023-04-15T03:47:15;10.94;;;10.94;;
68942;SDS011;60852;52.190;4.422;2023-04-15T03:49:41;11.16;;;11.16;;
68942;SDS011;60852;52.190;4.422;2023-04-15T03:52:06;11.25;;;11.25;;
68942;SDS011;60852;52.190;4.422;2023-04-15T03:54:32;11.36;;;11.34;;
68942;SDS011;60852;52.190;4.422;2023-04-15T03:56:57;11.07;;;11.07;;
68942;SDS011;60852;52.190;4.422;2023-04-15T03:59:22;11.41;;;11.41;;
68942;SDS011;60852;52.190;4.422;2023-04-15T04:01:48;11.30;;;11.30;;
68942;SDS011;60852;52.190;4.422;2023-04-15T04:04:13;11.20;;;11.20;;
68942;SDS011;60852;52.190;4.422;2023-04-15T04:06:39;11.48;;;11.48;;
68942;SDS011;60852;52.190;4.422;2023-04-15T04:09:05;12.01;;;12.01;;
68942;SDS011;60852;52.190;4.422;2023-04-15T04:11:30;11.82;;;11.82;;
68942;SDS011;60852;52.190;4.422;2023-04-15T04:13:57;12.04;;;12.04;;
68942;SDS011;60852;52.190;4.422;2023-04-15T04:16:23;11.09;;;11.09;;
68942;SDS011;60852;52.190;4.422;2023-04-15T04:18:48;11.64;;;11.64;;
68942;SDS011;60852;52.190;4.422;2023-04-15T04:21:14;11.59;;;11.59;;
68942;SDS011;60852;52.190;4.422;2023-04-15T04:23:40;11.45;;;11.45;;
68942;SDS011;60852;52.190;4.422;2023-04-15T04:26:06;12.53;;;12.53;;
68942;SDS011;60852;52.190;4.422;2023-04-15T04:28:32;12.16;;;12.16;;
68942;SDS011;60852;52.190;4.422;2023-04-15T04:30:59;12.05;;;12.04;;
68942;SDS011;60852;52.190;4.422;2023-04-15T04:33:25;12.41;;;12.41;;
68942;SDS011;60852;52.190;4.422;2023-04-15T04:35:50;12.30;;;12.30;;
68942;SDS011;60852;52.190;4.422;2023-04-15T04:38:16;12.19;;;12.19;;
68942;SDS011;60852;52.190;4.422;2023-04-15T04:40:41;12.75;;;12.75;;
68942;SDS011;60852;52.190;4.422;2023-04-15T04:43:07;12.76;;;12.76;;
68942;SDS011;60852;52.190;4.422;2023-04-15T04:45:32;12.50;;;12.50;;
68942;SDS011;60852;52.190;4.422;2023-04-15T04:47:57;12.41;;;12.41;;
68942;SDS011;60852;52.190;4.422;2023-04-15T04:50:23;13.32;;;13.32;;
68942;SDS011;60852;52.190;4.422;2023-04-15T04:52:48;13.29;;;13.29;;
68942;SDS011;60852;52.190;4.422;2023-04-15T04:55:14;12.69;;;12.69;;
68942;SDS011;60852;52.190;4.422;2023-04-15T04:57:40;12.93;;;12.92;;
68942;SDS011;60852;52.190;4.422;2023-04-15T05:00:05;13.03;;;13.03;;
68942;SDS011;60852;52.190;4.422;2023-04-15T05:02:33;12.98;;;12.98;;
68942;SDS011;60852;52.190;4.422;2023-04-15T05:04:59;12.87;;;12.86;;
68942;SDS011;60852;52.190;4.422;2023-04-15T05:07:24;12.78;;;12.78;;
68942;SDS011;60852;52.190;4.422;2023-04-15T05:09:49;12.98;;;12.91;;
68942;SDS011;60852;52.190;4.422;2023-04-15T05:12:15;12.86;;;12.86;;
68942;SDS011;60852;52.190;4.422;2023-04-15T05:14:43;12.46;;;12.46;;
68942;SDS011;60852;52.190;4.422;2023-04-15T05:17:09;12.76;;;12.75;;
68942;SDS011;60852;52.190;4.422;2023-04-15T05:19:35;12.88;;;12.87;;
68942;SDS011;60852;52.190;4.422;2023-04-15T05:22:01;12.64;;;12.64;;
68942;SDS011;60852;52.190;4.422;2023-04-15T05:24:26;13.03;;;13.02;;
68942;SDS011;60852;52.190;4.422;2023-04-15T05:26:51;12.89;;;12.83;;
68942;SDS011;60852;52.190;4.422;2023-04-15T05:29:17;13.07;;;13.06;;
68942;SDS011;60852;52.190;4.422;2023-04-15T05:31:42;12.35;;;12.35;;
68942;SDS011;60852;52.190;4.422;2023-04-15T05:34:08;12.54;;;12.53;;
68942;SDS011;60852;52.190;4.422;2023-04-15T05:36:34;12.57;;;12.57;;
68942;SDS011;60852;52.190;4.422;2023-04-15T05:39:00;13.07;;;13.07;;
68942;SDS011;60852;52.190;4.422;2023-04-15T05:41:25;12.79;;;12.76;;
68942;SDS011;60852;52.190;4.422;2023-04-15T05:43:51;12.88;;;12.85;;
68942;SDS011;60852;52.190;4.422;2023-04-15T05:46:16;13.22;;;13.21;;
68942;SDS011;60852;52.190;4.422;2023-04-15T05:48:42;13.66;;;13.55;;
68942;SDS011;60852;52.190;4.422;2023-04-15T05:51:07;13.47;;;13.46;;
68942;SDS011;60852;52.190;4.422;2023-04-15T05:53:33;14.01;;;14.00;;
68942;SDS011;60852;52.190;4.422;2023-04-15T05:55:59;13.98;;;13.98;;
68942;SDS011;60852;52.190;4.422;2023-04-15T05:58:24;13.45;;;13.45;;
68942;SDS011;60852;52.190;4.422;2023-04-15T06:00:50;13.38;;;13.34;;
68942;SDS011;60852;52.190;4.422;2023-04-15T06:03:15;13.61;;;13.58;;
68942;SDS011;60852;52.190;4.422;2023-04-15T06:05:42;14.01;;;14.01;;
68942;SDS011;60852;52.190;4.422;2023-04-15T06:08:08;14.47;;;14.47;;
68942;SDS011;60852;52.190;4.422;2023-04-15T06:10:34;14.23;;;14.23;;
68942;SDS011;60852;52.190;4.422;2023-04-15T06:13:01;14.70;;;14.70;;
68942;SDS011;60852;52.190;4.422;2023-04-15T06:15:28;14.52;;;14.51;;
68942;SDS011;60852;52.190;4.422;2023-04-15T06:17:53;15.01;;;14.80;;
68942;SDS011;60852;52.190;4.422;2023-04-15T06:20:19;15.02;;;15.00;;
68942;SDS011;60852;52.190;4.422;2023-04-15T06:22:45;14.93;;;14.83;;
68942;SDS011;60852;52.190;4.422;2023-04-15T06:25:11;14.83;;;14.83;;
68942;SDS011;60852;52.190;4.422;2023-04-15T06:27:36;15.43;;;15.39;;
68942;SDS011;60852;52.190;4.422;2023-04-15T06:30:02;15.09;;;14.88;;
68942;SDS011;60852;52.190;4.422;2023-04-15T06:32:28;14.74;;;14.72;;
68942;SDS011;60852;52.190;4.422;2023-04-15T06:34:53;15.64;;;15.25;;
68942;SDS011;60852;52.190;4.422;2023-04-15T06:37:19;15.09;;;15.08;;
68942;SDS011;60852;52.190;4.422;2023-04-15T06:39:44;15.24;;;15.14;;
68942;SDS011;60852;52.190;4.422;2023-04-15T06:42:10;14.73;;;14.72;;
68942;SDS011;60852;52.190;4.422;2023-04-15T06:44:36;14.95;;;14.86;;
68942;SDS011;60852;52.190;4.422;2023-04-15T06:47:02;15.10;;;14.95;;
68942;SDS011;60852;52.190;4.422;2023-04-15T06:49:28;15.10;;;15.02;;
68942;SDS011;60852;52.190;4.422;2023-04-15T06:51:54;15.39;;;15.38;;
68942;SDS011;60852;52.190;4.422;2023-04-15T06:54:19;15.38;;;15.37;;
68942;SDS011;60852;52.190;4.422;2023-04-15T06:56:45;15.32;;;15.32;;
68942;SDS011;60852;52.190;4.422;2023-04-15T06:59:11;14.54;;;14.54;;
68942;SDS011;60852;52.190;4.422;2023-04-15T07:01:37;14.77;;;14.72;;
68942;SDS011;60852;52.190;4.422;2023-04-15T07:04:02;15.37;;;15.13;;
68942;SDS011;60852;52.190;4.422;2023-04-15T07:06:27;15.23;;;14.99;;
68942;SDS011;60852;52.190;4.422;2023-04-15T07:08:53;14.41;;;14.41;;
68942;SDS011;60852;52.190;4.422;2023-04-15T07:11:19;14.68;;;14.65;;
68942;SDS011;60852;52.190;4.422;2023-04-15T07:13:45;14.05;;;14.05;;
68942;SDS011;60852;52.190;4.422;2023-04-15T07:16:10;14.18;;;14.18;;
68942;SDS011;60852;52.190;4.422;2023-04-15T07:18:36;14.48;;;14.48;;
68942;SDS011;60852;52.190;4.422;2023-04-15T07:21:01;15.47;;;15.21;;
68942;SDS011;60852;52.190;4.422;2023-04-15T07:23:27;14.64;;;14.54;;
68942;SDS011;60852;52.190;4.422;2023-04-15T07:25:53;14.14;;;14.12;;
68942;SDS011;60852;52.190;4.422;2023-04-15T07:28:19;14.75;;;14.59;;
68942;SDS011;60852;52.190;4.422;2023-04-15T07:30:44;14.09;;;14.04;;
68942;SDS011;60852;52.190;4.422;2023-04-15T07:33:10;13.72;;;13.72;;
68942;SDS011;60852;52.190;4.422;2023-04-15T07:35:36;14.13;;;14.03;;
68942;SDS011;60852;52.190;4.422;2023-04-15T07:38:01;13.79;;;13.72;;
68942;SDS011;60852;52.190;4.422;2023-04-15T07:40:27;14.54;;;14.38;;
68942;SDS011;60852;52.190;4.422;2023-04-15T07:42:53;14.47;;;14.46;;
68942;SDS011;60852;52.190;4.422;2023-04-15T07:45:21;14.90;;;14.57;;
68942;SDS011;60852;52.190;4.422;2023-04-15T07:47:46;14.81;;;14.80;;
68942;SDS011;60852;52.190;4.422;2023-04-15T07:50:12;14.40;;;14.39;;
68942;SDS011;60852;52.190;4.422;2023-04-15T07:52:38;14.99;;;14.94;;
68942;SDS011;60852;52.190;4.422;2023-04-15T07:55:05;15.96;;;15.92;;
68942;SDS011;60852;52.190;4.422;2023-04-15T07:57:32;15.27;;;15.27;;
68942;SDS011;60852;52.190;4.422;2023-04-15T07:59:59;14.75;;;14.67;;
68942;SDS011;60852;52.190;4.422;2023-04-15T08:02:25;14.60;;;14.55;;
68942;SDS011;60852;52.190;4.422;2023-04-15T08:04:51;14.83;;;14.72;;
68942;SDS011;60852;52.190;4.422;2023-04-15T08:07:18;14.21;;;14.14;;
68942;SDS011;60852;52.190;4.422;2023-04-15T08:09:43;13.90;;;13.66;;
68942;SDS011;60852;52.190;4.422;2023-04-15T08:12:09;12.84;;;12.82;;
68942;SDS011;60852;52.190;4.422;2023-04-15T08:14:37;12.42;;;12.42;;
68942;SDS011;60852;52.190;4.422;2023-04-15T08:17:03;13.11;;;12.83;;
68942;SDS011;60852;52.190;4.422;2023-04-15T08:19:29;13.00;;;12.69;;
68942;SDS011;60852;52.190;4.422;2023-04-15T08:21:55;12.66;;;12.64;;
68942;SDS011;60852;52.190;4.422;2023-04-15T08:24:21;13.40;;;13.40;;
68942;SDS011;60852;52.190;4.422;2023-04-15T08:26:46;13.23;;;12.99;;
68942;SDS011;60852;52.190;4.422;2023-04-15T08:29:12;13.15;;;12.83;;
68942;SDS011;60852;52.190;4.422;2023-04-15T08:31:38;12.52;;;12.44;;
68942;SDS011;60852;52.190;4.422;2023-04-15T08:34:03;11.68;;;11.68;;
68942;SDS011;60852;52.190;4.422;2023-04-15T08:36:29;11.93;;;11.64;;
68942;SDS011;60852;52.190;4.422;2023-04-15T08:38:56;12.25;;;11.74;;
68942;SDS011;60852;52.190;4.422;2023-04-15T08:41:23;10.84;;;10.81;;
68942;SDS011;60852;52.190;4.422;2023-04-15T08:43:53;10.70;;;10.68;;
68942;SDS011;60852;52.190;4.422;2023-04-15T08:46:22;10.25;;;10.19;;
68942;SDS011;60852;52.190;4.422;2023-04-15T08:48:48;10.57;;;10.51;;
68942;SDS011;60852;52.190;4.422;2023-04-15T08:51:15;11.46;;;10.84;;
68942;SDS011;60852;52.190;4.422;2023-04-15T08:53:42;11.15;;;10.87;;
68942;SDS011;60852;52.190;4.422;2023-04-15T08:56:08;11.09;;;10.74;;
68942;SDS011;60852;52.190;4.422;2023-04-15T08:58:38;10.91;;;10.55;;
68942;SDS011;60852;52.190;4.422;2023-04-15T09:01:03;11.21;;;10.85;;
68942;SDS011;60852;52.190;4.422;2023-04-15T09:03:29;11.26;;;10.81;;
68942;SDS011;60852;52.190;4.422;2023-04-15T09:05:56;11.88;;;11.36;;
68942;SDS011;60852;52.190;4.422;2023-04-15T09:08:22;11.11;;;10.83;;
68942;SDS011;60852;52.190;4.422;2023-04-15T09:10:47;10.70;;;10.64;;
68942;SDS011;60852;52.190;4.422;2023-04-15T09:13:13;11.34;;;11.14;;
68942;SDS011;60852;52.190;4.422;2023-04-15T09:15:39;10.85;;;10.44;;
68942;SDS011;60852;52.190;4.422;2023-04-15T09:18:05;10.82;;;10.37;;
68942;SDS011;60852;52.190;4.422;2023-04-15T09:20:37;10.81;;;10.40;;
68942;SDS011;60852;52.190;4.422;2023-04-15T09:23:10;9.97;;;9.92;;
68942;SDS011;60852;52.190;4.422;2023-04-15T09:25:38;10.37;;;10.26;;
68942;SDS011;60852;52.190;4.422;2023-04-15T09:28:06;11.69;;;11.24;;
68942;SDS011;60852;52.190;4.422;2023-04-15T09:30:32;10.43;;;9.92;;
68942;SDS011;60852;52.190;4.422;2023-04-15T09:33:00;9.18;;;8.87;;
68942;SDS011;60852;52.190;4.422;2023-04-15T09:35:27;8.46;;;8.33;;
68942;SDS011;60852;52.190;4.422;2023-04-15T09:37:53;8.91;;;8.66;;
68942;SDS011;60852;52.190;4.422;2023-04-15T09:40:40;8.00;;;7.95;;
68942;SDS011;60852;52.190;4.422;2023-04-15T09:43:07;5.39;;;5.39;;
68942;SDS011;60852;52.190;4.422;2023-04-15T09:45:34;5.93;;;5.89;;
68942;SDS011;60852;52.190;4.422;2023-04-15T09:50:47;4.99;;;4.98;;
68942;SDS011;60852;52.190;4.422;2023-04-15T09:53:17;5.32;;;5.23;;
68942;SDS011;60852;52.190;4.422;2023-04-15T09:55:50;6.29;;;6.18;;
68942;SDS011;60852;52.190;4.422;2023-04-15T09:58:24;7.03;;;6.97;;
68942;SDS011;60852;52.190;4.422;2023-04-15T10:00:52;6.83;;;6.82;;
68942;SDS011;60852;52.190;4.422;2023-04-15T10:03:27;6.84;;;6.73;;
68942;SDS011;60852;52.190;4.422;2023-04-15T10:05:55;5.62;;;5.47;;
68942;SDS011;60852;52.190;4.422;2023-04-15T10:08:24;4.53;;;4.47;;
68942;SDS011;60852;52.190;4.422;2023-04-15T10:10:51;4.22;;;4.22;;
68942;SDS011;60852;52.190;4.422;2023-04-15T10:13:18;4.40;;;4.40;;
68942;SDS011;60852;52.190;4.422;2023-04-15T10:15:57;4.57;;;4.57;;
68942;SDS011;60852;52.190;4.422;2023-04-15T10:18:28;4.73;;;4.73;;
68942;SDS011;60852;52.190;4.422;2023-04-15T10:20:59;5.58;;;5.51;;
68942;SDS011;60852;52.190;4.422;2023-04-15T10:23:25;5.53;;;5.53;;
68942;SDS011;60852;52.190;4.422;2023-04-15T10:25:52;5.60;;;5.58;;
68942;SDS011;60852;52.190;4.422;2023-04-15T10:28:20;5.66;;;5.66;;
68942;SDS011;60852;52.190;4.422;2023-04-15T10:30:49;5.67;;;5.67;;
68942;SDS011;60852;52.190;4.422;2023-04-15T10:33:17;4.28;;;4.28;;
68942;SDS011;60852;52.190;4.422;2023-04-15T10:35:45;3.64;;;3.64;;
68942;SDS011;60852;52.190;4.422;2023-04-15T10:41:12;4.85;;;4.83;;
68942;SDS011;60852;52.190;4.422;2023-04-15T10:43:38;4.89;;;4.88;;
68942;SDS011;60852;52.190;4.422;2023-04-15T10:46:07;4.83;;;4.81;;
68942;SDS011;60852;52.190;4.422;2023-04-15T10:48:32;4.75;;;4.75;;
68942;SDS011;60852;52.190;4.422;2023-04-15T10:51:01;5.34;;;5.34;;
68942;SDS011;60852;52.190;4.422;2023-04-15T10:53:29;5.02;;;5.02;;
68942;SDS011;60852;52.190;4.422;2023-04-15T10:55:56;4.15;;;4.15;;
68942;SDS011;60852;52.190;4.422;2023-04-15T10:58:23;3.93;;;3.93;;
68942;SDS011;60852;52.190;4.422;2023-04-15T11:00:50;4.38;;;4.38;;
68942;SDS011;60852;52.190;4.422;2023-04-15T11:03:20;5.49;;;5.49;;
68942;SDS011;60852;52.190;4.422;2023-04-15T11:06:04;5.50;;;5.50;;
68942;SDS011;60852;52.190;4.422;2023-04-15T11:14:26;5.46;;;5.45;;
68942;SDS011;60852;52.190;4.422;2023-04-15T11:16:51;5.75;;;5.75;;
68942;SDS011;60852;52.190;4.422;2023-04-15T11:19:17;5.89;;;5.89;;
68942;SDS011;60852;52.190;4.422;2023-04-15T11:21:42;5.88;;;5.88;;
68942;SDS011;60852;52.190;4.422;2023-04-15T11:24:08;6.06;;;6.06;;
68942;SDS011;60852;52.190;4.422;2023-04-15T11:26:33;6.50;;;6.50;;
68942;SDS011;60852;52.190;4.422;2023-04-15T11:28:59;7.07;;;7.07;;
68942;SDS011;60852;52.190;4.422;2023-04-15T11:31:25;6.63;;;6.63;;
68942;SDS011;60852;52.190;4.422;2023-04-15T11:33:53;6.89;;;6.80;;
68942;SDS011;60852;52.190;4.422;2023-04-15T11:36:24;6.71;;;6.68;;
68942;SDS011;60852;52.190;4.422;2023-04-15T11:38:51;6.69;;;6.69;;
68942;SDS011;60852;52.190;4.422;2023-04-15T11:41:20;6.63;;;6.63;;
68942;SDS011;60852;52.190;4.422;2023-04-15T11:43:47;7.07;;;7.07;;
68942;SDS011;60852;52.190;4.422;2023-04-15T11:46:12;7.78;;;7.78;;
68942;SDS011;60852;52.190;4.422;2023-04-15T11:48:41;7.65;;;7.65;;
68942;SDS011;60852;52.190;4.422;2023-04-15T11:51:08;7.26;;;7.24;;
68942;SDS011;60852;52.190;4.422;2023-04-15T11:53:45;6.93;;;6.87;;
68942;SDS011;60852;52.190;4.422;2023-04-15T11:56:19;6.98;;;6.98;;
68942;SDS011;60852;52.190;4.422;2023-04-15T11:58:53;6.79;;;6.79;;
68942;SDS011;60852;52.190;4.422;2023-04-15T12:01:29;6.60;;;6.60;;
68942;SDS011;60852;52.190;4.422;2023-04-15T12:04:16;6.88;;;6.84;;
68942;SDS011;60852;52.190;4.422;2023-04-15T12:06:47;7.06;;;6.99;;
68942;SDS011;60852;52.190;4.422;2023-04-15T12:09:13;7.76;;;7.66;;
68942;SDS011;60852;52.190;4.422;2023-04-15T12:11:45;8.80;;;8.68;;
68942;SDS011;60852;52.190;4.422;2023-04-15T12:16:46;10.48;;;10.36;;
68942;SDS011;60852;52.190;4.422;2023-04-15T12:19:14;11.43;;;11.22;;
68942;SDS011;60852;52.190;4.422;2023-04-15T12:22:00;12.09;;;11.72;;
68942;SDS011;60852;52.190;4.422;2023-04-15T12:24:32;12.16;;;11.90;;
68942;SDS011;60852;52.190;4.422;2023-04-15T12:27:10;11.44;;;11.30;;
68942;SDS011;60852;52.190;4.422;2023-04-15T12:29:38;10.27;;;10.17;;
68942;SDS011;60852;52.190;4.422;2023-04-15T12:32:10;9.42;;;9.37;;
68942;SDS011;60852;52.190;4.422;2023-04-15T12:34:37;9.85;;;9.79;;
68942;SDS011;60852;52.190;4.422;2023-04-15T12:37:06;8.85;;;8.76;;
68942;SDS011;60852;52.190;4.422;2023-04-15T12:39:37;8.16;;;8.01;;
68942;SDS011;60852;52.190;4.422;2023-04-15T12:42:05;7.51;;;7.46;;
68942;SDS011;60852;52.190;4.422;2023-04-15T12:44:32;7.40;;;7.28;;
68942;SDS011;60852;52.190;4.422;2023-04-15T12:46:58;6.68;;;6.67;;
68942;SDS011;60852;52.190;4.422;2023-04-15T12:49:24;6.20;;;6.18;;
68942;SDS011;60852;52.190;4.422;2023-04-15T12:51:52;6.43;;;6.42;;
68942;SDS011;60852;52.190;4.422;2023-04-15T12:54:19;6.24;;;6.20;;
68942;SDS011;60852;52.190;4.422;2023-04-15T12:56:45;6.01;;;5.95;;
68942;SDS011;60852;52.190;4.422;2023-04-15T12:59:13;6.05;;;6.02;;
68942;SDS011;60852;52.190;4.422;2023-04-15T13:01:40;5.85;;;5.79;;
68942;SDS011;60852;52.190;4.422;2023-04-15T13:04:05;5.70;;;5.67;;
68942;SDS011;60852;52.190;4.422;2023-04-15T13:06:31;5.17;;;5.17;;
68942;SDS011;60852;52.190;4.422;2023-04-15T13:09:00;5.05;;;5.05;;
68942;SDS011;60852;52.190;4.422;2023-04-15T13:11:27;5.53;;;5.52;;
68942;SDS011;60852;52.190;4.422;2023-04-15T13:13:59;5.94;;;5.92;;
68942;SDS011;60852;52.190;4.422;2023-04-15T13:16:25;5.90;;;5.85;;
68942;SDS011;60852;52.190;4.422;2023-04-15T13:18:50;5.55;;;5.53;;
68942;SDS011;60852;52.190;4.422;2023-04-15T13:21:16;5.91;;;5.89;;
68942;SDS011;60852;52.190;4.422;2023-04-15T13:23:43;5.80;;;5.79;;
68942;SDS011;60852;52.190;4.422;2023-04-15T13:26:08;6.07;;;6.07;;
68942;SDS011;60852;52.190;4.422;2023-04-15T13:28:34;6.21;;;6.18;;
68942;SDS011;60852;52.190;4.422;2023-04-15T13:31:00;6.56;;;6.49;;
68942;SDS011;60852;52.190;4.422;2023-04-15T13:33:26;6.14;;;6.11;;
68942;SDS011;60852;52.190;4.422;2023-04-15T13:35:51;5.89;;;5.89;;
68942;SDS011;60852;52.190;4.422;2023-04-15T13:38:17;5.89;;;5.89;;
68942;SDS011;60852;52.190;4.422;2023-04-15T13:40:43;5.58;;;5.56;;
68942;SDS011;60852;52.190;4.422;2023-04-15T13:43:08;5.83;;;5.83;;
68942;SDS011;60852;52.190;4.422;2023-04-15T13:45:34;5.67;;;5.66;;
68942;SDS011;60852;52.190;4.422;2023-04-15T13:47:59;6.04;;;6.03;;
68942;SDS011;60852;52.190;4.422;2023-04-15T13:50:26;5.73;;;5.73;;
68942;SDS011;60852;52.190;4.422;2023-04-15T13:52:52;5.48;;;5.48;;
68942;SDS011;60852;52.190;4.422;2023-04-15T13:55:17;5.56;;;5.54;;
68942;SDS011;60852;52.190;4.422;2023-04-15T13:57:43;5.44;;;5.42;;
68942;SDS011;60852;52.190;4.422;2023-04-15T14:00:09;5.50;;;5.50;;
68942;SDS011;60852;52.190;4.422;2023-04-15T14:02:35;5.56;;;5.55;;
68942;SDS011;60852;52.190;4.422;2023-04-15T14:05:00;6.24;;;6.20;;
68942;SDS011;60852;52.190;4.422;2023-04-15T14:07:27;5.87;;;5.83;;
68942;SDS011;60852;52.190;4.422;2023-04-15T14:09:54;5.65;;;5.62;;
68942;SDS011;60852;52.190;4.422;2023-04-15T14:12:20;5.96;;;5.93;;
68942;SDS011;60852;52.190;4.422;2023-04-15T14:14:45;6.07;;;6.00;;
68942;SDS011;60852;52.190;4.422;2023-04-15T14:17:11;6.25;;;6.23;;
68942;SDS011;60852;52.190;4.422;2023-04-15T14:19:36;6.46;;;6.46;;
68942;SDS011;60852;52.190;4.422;2023-04-15T14:22:02;5.93;;;5.93;;
68942;SDS011;60852;52.190;4.422;2023-04-15T14:24:27;6.17;;;6.17;;
68942;SDS011;60852;52.190;4.422;2023-04-15T14:26:53;6.44;;;6.44;;
68942;SDS011;60852;52.190;4.422;2023-04-15T14:29:19;6.89;;;6.89;;
68942;SDS011;60852;52.190;4.422;2023-04-15T14:31:44;6.62;;;6.62;;
68942;SDS011;60852;52.190;4.422;2023-04-15T14:34:10;6.71;;;6.70;;
68942;SDS011;60852;52.190;4.422;2023-04-15T14:36:36;6.57;;;6.57;;
68942;SDS011;60852;52.190;4.422;2023-04-15T14:39:02;6.40;;;6.40;;
68942;SDS011;60852;52.190;4.422;2023-04-15T14:41:28;5.78;;;5.78;;